sensor_id;sensor_type;location;lat;lon;timestamp;P1;durP1;ratioP1;P2;durP2;ratioP2
60318;SDS011;46163;52.306;5.634;2024-01-30T00:00:37;8.75;;;7.30;;
60318;SDS011;46163;52.306;5.634;2024-01-30T00:03:03;10.20;;;7.75;;
60318;SDS011;46163;52.306;5.634;2024-01-30T00:05:28;9.75;;;7.22;;
60318;SDS011;46163;52.306;5.634;2024-01-30T00:07:54;10.32;;;7.35;;
60318;SDS011;46163;52.306;5.634;2024-01-30T00:10:19;9.00;;;6.68;;
60318;SDS011;46163;52.306;5.634;2024-01-30T00:12:45;9.15;;;6.97;;
60318;SDS011;46163;52.306;5.634;2024-01-30T00:15:11;8.00;;;7.13;;
60318;SDS011;46163;52.306;5.634;2024-01-30T00:17:36;8.20;;;6.70;;
60318;SDS011;46163;52.306;5.634;2024-01-30T00:20:02;10.52;;;7.70;;
60318;SDS011;46163;52.306;5.634;2024-01-30T00:22:31;9.02;;;7.40;;
60318;SDS011;46163;52.306;5.634;2024-01-30T00:24:56;11.10;;;7.07;;
60318;SDS011;46163;52.306;5.634;2024-01-30T00:27:22;9.43;;;7.82;;
60318;SDS011;46163;52.306;5.634;2024-01-30T00:29:47;8.32;;;7.30;;
60318;SDS011;46163;52.306;5.634;2024-01-30T00:32:13;10.40;;;7.55;;
60318;SDS011;46163;52.306;5.634;2024-01-30T00:34:38;8.45;;;6.97;;
60318;SDS011;46163;52.306;5.634;2024-01-30T00:37:04;8.27;;;6.68;;
60318;SDS011;46163;52.306;5.634;2024-01-30T00:39:29;8.80;;;7.13;;
60318;SDS011;46163;52.306;5.634;2024-01-30T00:41:55;9.63;;;6.93;;
60318;SDS011;46163;52.306;5.634;2024-01-30T00:44:20;8.98;;;6.57;;
60318;SDS011;46163;52.306;5.634;2024-01-30T00:46:45;13.30;;;6.72;;
60318;SDS011;46163;52.306;5.634;2024-01-30T00:49:11;7.40;;;6.38;;
60318;SDS011;46163;52.306;5.634;2024-01-30T00:51:36;7.30;;;6.00;;
60318;SDS011;46163;52.306;5.634;2024-01-30T00:54:02;11.65;;;7.35;;
60318;SDS011;46163;52.306;5.634;2024-01-30T00:56:28;10.13;;;7.25;;
60318;SDS011;46163;52.306;5.634;2024-01-30T00:58:53;14.30;;;7.72;;
60318;SDS011;46163;52.306;5.634;2024-01-30T01:01:19;7.93;;;6.47;;
60318;SDS011;46163;52.306;5.634;2024-01-30T01:03:44;8.40;;;6.63;;
60318;SDS011;46163;52.306;5.634;2024-01-30T01:06:10;9.18;;;6.93;;
60318;SDS011;46163;52.306;5.634;2024-01-30T01:08:35;8.02;;;6.35;;
60318;SDS011;46163;52.306;5.634;2024-01-30T01:11:01;7.57;;;6.63;;
60318;SDS011;46163;52.306;5.634;2024-01-30T01:13:26;8.20;;;6.35;;
60318;SDS011;46163;52.306;5.634;2024-01-30T01:15:52;8.18;;;7.13;;
60318;SDS011;46163;52.306;5.634;2024-01-30T01:18:17;6.63;;;5.82;;
60318;SDS011;46163;52.306;5.634;2024-01-30T01:20:42;7.72;;;6.60;;
60318;SDS011;46163;52.306;5.634;2024-01-30T01:23:08;7.97;;;6.15;;
60318;SDS011;46163;52.306;5.634;2024-01-30T01:25:34;8.23;;;5.93;;
60318;SDS011;46163;52.306;5.634;2024-01-30T01:27:59;8.27;;;7.35;;
60318;SDS011;46163;52.306;5.634;2024-01-30T01:30:26;11.80;;;6.72;;
60318;SDS011;46163;52.306;5.634;2024-01-30T01:32:53;7.03;;;6.07;;
60318;SDS011;46163;52.306;5.634;2024-01-30T01:35:23;11.88;;;7.00;;
60318;SDS011;46163;52.306;5.634;2024-01-30T01:37:52;12.02;;;6.20;;
60318;SDS011;46163;52.306;5.634;2024-01-30T01:40:22;7.47;;;6.32;;
60318;SDS011;46163;52.306;5.634;2024-01-30T01:42:49;9.30;;;7.03;;
60318;SDS011;46163;52.306;5.634;2024-01-30T01:45:16;9.05;;;6.97;;
60318;SDS011;46163;52.306;5.634;2024-01-30T01:47:41;6.65;;;5.95;;
60318;SDS011;46163;52.306;5.634;2024-01-30T01:50:07;7.95;;;6.30;;
60318;SDS011;46163;52.306;5.634;2024-01-30T01:52:33;7.63;;;6.18;;
60318;SDS011;46163;52.306;5.634;2024-01-30T01:54:59;10.15;;;5.80;;
60318;SDS011;46163;52.306;5.634;2024-01-30T01:57:25;10.32;;;6.93;;
60318;SDS011;46163;52.306;5.634;2024-01-30T01:59:50;8.82;;;6.75;;
60318;SDS011;46163;52.306;5.634;2024-01-30T02:02:16;8.52;;;6.45;;
60318;SDS011;46163;52.306;5.634;2024-01-30T02:07:10;6.10;;;5.35;;
60318;SDS011;46163;52.306;5.634;2024-01-30T02:09:36;7.70;;;5.40;;
60318;SDS011;46163;52.306;5.634;2024-01-30T02:12:01;13.70;;;6.55;;
60318;SDS011;46163;52.306;5.634;2024-01-30T02:14:26;8.65;;;6.15;;
60318;SDS011;46163;52.306;5.634;2024-01-30T02:16:52;9.80;;;7.38;;
60318;SDS011;46163;52.306;5.634;2024-01-30T02:19:17;8.75;;;5.72;;
60318;SDS011;46163;52.306;5.634;2024-01-30T02:21:43;8.35;;;6.43;;
60318;SDS011;46163;52.306;5.634;2024-01-30T02:24:10;9.52;;;6.82;;
60318;SDS011;46163;52.306;5.634;2024-01-30T02:26:35;7.75;;;5.40;;
60318;SDS011;46163;52.306;5.634;2024-01-30T02:29:00;7.22;;;6.07;;
60318;SDS011;46163;52.306;5.634;2024-01-30T02:31:26;7.43;;;5.57;;
60318;SDS011;46163;52.306;5.634;2024-01-30T02:33:51;7.63;;;5.00;;
60318;SDS011;46163;52.306;5.634;2024-01-30T02:36:17;7.35;;;5.65;;
60318;SDS011;46163;52.306;5.634;2024-01-30T02:38:42;10.07;;;5.80;;
60318;SDS011;46163;52.306;5.634;2024-01-30T02:41:08;6.82;;;5.40;;
60318;SDS011;46163;52.306;5.634;2024-01-30T02:43:33;7.90;;;5.47;;
60318;SDS011;46163;52.306;5.634;2024-01-30T02:45:59;8.20;;;6.20;;
60318;SDS011;46163;52.306;5.634;2024-01-30T02:48:25;7.07;;;5.45;;
60318;SDS011;46163;52.306;5.634;2024-01-30T02:50:51;7.93;;;6.57;;
60318;SDS011;46163;52.306;5.634;2024-01-30T02:53:16;7.38;;;5.60;;
60318;SDS011;46163;52.306;5.634;2024-01-30T02:55:42;9.73;;;5.90;;
60318;SDS011;46163;52.306;5.634;2024-01-30T02:58:07;6.97;;;5.63;;
60318;SDS011;46163;52.306;5.634;2024-01-30T03:00:33;7.13;;;5.95;;
60318;SDS011;46163;52.306;5.634;2024-01-30T03:02:59;9.85;;;6.35;;
60318;SDS011;46163;52.306;5.634;2024-01-30T03:05:25;6.80;;;5.88;;
60318;SDS011;46163;52.306;5.634;2024-01-30T03:07:50;8.05;;;6.05;;
60318;SDS011;46163;52.306;5.634;2024-01-30T03:10:15;8.98;;;6.18;;
60318;SDS011;46163;52.306;5.634;2024-01-30T03:12:41;8.27;;;6.65;;
60318;SDS011;46163;52.306;5.634;2024-01-30T03:15:06;9.18;;;7.13;;
60318;SDS011;46163;52.306;5.634;2024-01-30T03:17:32;8.75;;;7.07;;
60318;SDS011;46163;52.306;5.634;2024-01-30T03:19:57;10.57;;;8.13;;
60318;SDS011;46163;52.306;5.634;2024-01-30T03:22:23;9.95;;;7.20;;
60318;SDS011;46163;52.306;5.634;2024-01-30T03:24:48;9.02;;;7.60;;
60318;SDS011;46163;52.306;5.634;2024-01-30T03:27:14;9.48;;;7.15;;
60318;SDS011;46163;52.306;5.634;2024-01-30T03:29:39;9.30;;;6.90;;
60318;SDS011;46163;52.306;5.634;2024-01-30T03:32:04;8.98;;;6.63;;
60318;SDS011;46163;52.306;5.634;2024-01-30T03:34:30;11.05;;;6.88;;
60318;SDS011;46163;52.306;5.634;2024-01-30T03:36:56;10.27;;;6.90;;
60318;SDS011;46163;52.306;5.634;2024-01-30T03:39:21;9.57;;;7.05;;
60318;SDS011;46163;52.306;5.634;2024-01-30T03:41:46;7.03;;;6.32;;
60318;SDS011;46163;52.306;5.634;2024-01-30T03:44:12;10.98;;;7.80;;
60318;SDS011;46163;52.306;5.634;2024-01-30T03:46:37;9.27;;;7.05;;
60318;SDS011;46163;52.306;5.634;2024-01-30T03:49:03;8.02;;;6.22;;
60318;SDS011;46163;52.306;5.634;2024-01-30T03:51:28;7.07;;;6.07;;
60318;SDS011;46163;52.306;5.634;2024-01-30T03:53:54;7.88;;;6.70;;
60318;SDS011;46163;52.306;5.634;2024-01-30T03:56:19;7.28;;;6.30;;
60318;SDS011;46163;52.306;5.634;2024-01-30T03:58:44;7.78;;;5.38;;
60318;SDS011;46163;52.306;5.634;2024-01-30T04:01:13;10.68;;;6.18;;
60318;SDS011;46163;52.306;5.634;2024-01-30T04:03:40;7.20;;;5.07;;
60318;SDS011;46163;52.306;5.634;2024-01-30T04:06:05;9.70;;;5.43;;
60318;SDS011;46163;52.306;5.634;2024-01-30T04:08:31;7.70;;;5.60;;
60318;SDS011;46163;52.306;5.634;2024-01-30T04:10:57;8.20;;;5.57;;
60318;SDS011;46163;52.306;5.634;2024-01-30T04:13:22;6.68;;;5.30;;
60318;SDS011;46163;52.306;5.634;2024-01-30T04:15:48;9.18;;;5.78;;
60318;SDS011;46163;52.306;5.634;2024-01-30T04:18:13;7.75;;;5.47;;
60318;SDS011;46163;52.306;5.634;2024-01-30T04:20:39;6.75;;;5.70;;
60318;SDS011;46163;52.306;5.634;2024-01-30T04:23:04;5.60;;;5.00;;
60318;SDS011;46163;52.306;5.634;2024-01-30T04:25:29;7.28;;;5.13;;
60318;SDS011;46163;52.306;5.634;2024-01-30T04:27:55;10.65;;;5.85;;
60318;SDS011;46163;52.306;5.634;2024-01-30T04:30:20;5.40;;;4.90;;
60318;SDS011;46163;52.306;5.634;2024-01-30T04:32:46;5.75;;;5.10;;
60318;SDS011;46163;52.306;5.634;2024-01-30T04:35:11;8.13;;;5.15;;
60318;SDS011;46163;52.306;5.634;2024-01-30T04:37:37;7.40;;;5.50;;
60318;SDS011;46163;52.306;5.634;2024-01-30T04:40:02;7.05;;;5.43;;
60318;SDS011;46163;52.306;5.634;2024-01-30T04:42:28;6.80;;;5.50;;
60318;SDS011;46163;52.306;5.634;2024-01-30T04:44:53;8.85;;;5.20;;
60318;SDS011;46163;52.306;5.634;2024-01-30T04:47:19;6.45;;;4.95;;
60318;SDS011;46163;52.306;5.634;2024-01-30T04:49:44;8.10;;;5.55;;
60318;SDS011;46163;52.306;5.634;2024-01-30T04:52:09;6.00;;;4.55;;
60318;SDS011;46163;52.306;5.634;2024-01-30T04:54:35;4.97;;;4.47;;
60318;SDS011;46163;52.306;5.634;2024-01-30T04:57:01;7.45;;;4.95;;
60318;SDS011;46163;52.306;5.634;2024-01-30T04:59:27;10.65;;;4.47;;
60318;SDS011;46163;52.306;5.634;2024-01-30T05:01:53;5.15;;;4.38;;
60318;SDS011;46163;52.306;5.634;2024-01-30T05:04:18;5.97;;;4.65;;
60318;SDS011;46163;52.306;5.634;2024-01-30T05:06:44;5.90;;;4.32;;
60318;SDS011;46163;52.306;5.634;2024-01-30T05:09:09;6.07;;;4.93;;
60318;SDS011;46163;52.306;5.634;2024-01-30T05:11:38;5.95;;;4.43;;
60318;SDS011;46163;52.306;5.634;2024-01-30T05:14:04;4.65;;;3.78;;
60318;SDS011;46163;52.306;5.634;2024-01-30T05:16:31;4.47;;;3.90;;
60318;SDS011;46163;52.306;5.634;2024-01-30T05:18:57;5.10;;;4.45;;
60318;SDS011;46163;52.306;5.634;2024-01-30T05:21:23;7.65;;;4.95;;
60318;SDS011;46163;52.306;5.634;2024-01-30T05:23:48;12.48;;;4.13;;
60318;SDS011;46163;52.306;5.634;2024-01-30T05:26:13;6.75;;;4.75;;
60318;SDS011;46163;52.306;5.634;2024-01-30T05:28:39;6.55;;;4.90;;
60318;SDS011;46163;52.306;5.634;2024-01-30T05:31:04;10.02;;;4.65;;
60318;SDS011;46163;52.306;5.634;2024-01-30T05:33:30;5.93;;;4.50;;
60318;SDS011;46163;52.306;5.634;2024-01-30T05:35:55;5.90;;;4.90;;
60318;SDS011;46163;52.306;5.634;2024-01-30T05:38:20;7.20;;;5.65;;
60318;SDS011;46163;52.306;5.634;2024-01-30T05:40:46;10.48;;;4.47;;
60318;SDS011;46163;52.306;5.634;2024-01-30T05:43:11;6.85;;;4.57;;
60318;SDS011;46163;52.306;5.634;2024-01-30T05:45:37;7.68;;;3.92;;
60318;SDS011;46163;52.306;5.634;2024-01-30T05:48:03;6.45;;;5.00;;
60318;SDS011;46163;52.306;5.634;2024-01-30T05:50:29;9.57;;;5.38;;
60318;SDS011;46163;52.306;5.634;2024-01-30T05:52:54;4.80;;;4.22;;
60318;SDS011;46163;52.306;5.634;2024-01-30T05:55:20;5.00;;;3.97;;
60318;SDS011;46163;52.306;5.634;2024-01-30T05:57:45;8.02;;;4.57;;
60318;SDS011;46163;52.306;5.634;2024-01-30T06:00:11;3.75;;;3.42;;
60318;SDS011;46163;52.306;5.634;2024-01-30T06:02:36;5.95;;;4.32;;
60318;SDS011;46163;52.306;5.634;2024-01-30T06:05:02;6.25;;;4.63;;
60318;SDS011;46163;52.306;5.634;2024-01-30T06:07:28;5.95;;;4.65;;
60318;SDS011;46163;52.306;5.634;2024-01-30T06:09:53;8.65;;;5.07;;
60318;SDS011;46163;52.306;5.634;2024-01-30T06:12:19;7.85;;;4.72;;
60318;SDS011;46163;52.306;5.634;2024-01-30T06:14:44;5.68;;;4.20;;
60318;SDS011;46163;52.306;5.634;2024-01-30T06:17:10;7.53;;;5.10;;
60318;SDS011;46163;52.306;5.634;2024-01-30T06:19:37;7.18;;;5.07;;
60318;SDS011;46163;52.306;5.634;2024-01-30T06:22:03;4.68;;;4.25;;
60318;SDS011;46163;52.306;5.634;2024-01-30T06:24:29;10.07;;;4.72;;
60318;SDS011;46163;52.306;5.634;2024-01-30T06:26:55;6.18;;;4.97;;
60318;SDS011;46163;52.306;5.634;2024-01-30T06:29:20;7.35;;;4.63;;
60318;SDS011;46163;52.306;5.634;2024-01-30T06:31:46;5.15;;;4.65;;
60318;SDS011;46163;52.306;5.634;2024-01-30T06:34:11;7.63;;;4.72;;
60318;SDS011;46163;52.306;5.634;2024-01-30T06:36:37;4.93;;;4.45;;
60318;SDS011;46163;52.306;5.634;2024-01-30T06:39:03;7.32;;;4.72;;
60318;SDS011;46163;52.306;5.634;2024-01-30T06:41:29;6.85;;;4.70;;
60318;SDS011;46163;52.306;5.634;2024-01-30T06:43:55;5.85;;;4.65;;
60318;SDS011;46163;52.306;5.634;2024-01-30T06:46:20;6.05;;;5.07;;
60318;SDS011;46163;52.306;5.634;2024-01-30T06:48:45;4.03;;;3.63;;
60318;SDS011;46163;52.306;5.634;2024-01-30T06:51:11;5.45;;;4.45;;
60318;SDS011;46163;52.306;5.634;2024-01-30T06:53:37;7.03;;;4.93;;
60318;SDS011;46163;52.306;5.634;2024-01-30T06:56:03;4.25;;;3.85;;
60318;SDS011;46163;52.306;5.634;2024-01-30T06:58:29;6.28;;;4.53;;
60318;SDS011;46163;52.306;5.634;2024-01-30T07:00:54;5.18;;;4.63;;
60318;SDS011;46163;52.306;5.634;2024-01-30T07:03:21;5.78;;;4.60;;
60318;SDS011;46163;52.306;5.634;2024-01-30T07:05:47;6.00;;;4.47;;
60318;SDS011;46163;52.306;5.634;2024-01-30T07:08:12;6.43;;;5.13;;
60318;SDS011;46163;52.306;5.634;2024-01-30T07:10:39;6.30;;;4.78;;
60318;SDS011;46163;52.306;5.634;2024-01-30T07:13:05;9.95;;;4.07;;
60318;SDS011;46163;52.306;5.634;2024-01-30T07:15:30;5.10;;;4.57;;
60318;SDS011;46163;52.306;5.634;2024-01-30T07:17:56;5.50;;;4.75;;
60318;SDS011;46163;52.306;5.634;2024-01-30T07:20:22;6.72;;;4.45;;
60318;SDS011;46163;52.306;5.634;2024-01-30T07:22:47;6.47;;;4.72;;
60318;SDS011;46163;52.306;5.634;2024-01-30T07:25:13;7.35;;;4.55;;
60318;SDS011;46163;52.306;5.634;2024-01-30T07:27:39;6.10;;;4.65;;
60318;SDS011;46163;52.306;5.634;2024-01-30T07:30:04;6.47;;;4.05;;
60318;SDS011;46163;52.306;5.634;2024-01-30T07:32:30;9.93;;;4.82;;
60318;SDS011;46163;52.306;5.634;2024-01-30T07:34:56;5.53;;;4.93;;
60318;SDS011;46163;52.306;5.634;2024-01-30T07:37:22;5.65;;;5.05;;
60318;SDS011;46163;52.306;5.634;2024-01-30T07:39:47;6.35;;;5.00;;
60318;SDS011;46163;52.306;5.634;2024-01-30T07:42:13;4.65;;;3.97;;
60318;SDS011;46163;52.306;5.634;2024-01-30T07:44:38;5.70;;;4.47;;
60318;SDS011;46163;52.306;5.634;2024-01-30T07:47:04;6.50;;;4.53;;
60318;SDS011;46163;52.306;5.634;2024-01-30T07:49:30;4.97;;;4.13;;
60318;SDS011;46163;52.306;5.634;2024-01-30T07:51:55;11.10;;;4.97;;
60318;SDS011;46163;52.306;5.634;2024-01-30T07:54:21;4.97;;;4.25;;
60318;SDS011;46163;52.306;5.634;2024-01-30T07:56:46;6.65;;;5.18;;
60318;SDS011;46163;52.306;5.634;2024-01-30T07:59:11;5.50;;;4.25;;
60318;SDS011;46163;52.306;5.634;2024-01-30T08:01:37;6.88;;;5.03;;
60318;SDS011;46163;52.306;5.634;2024-01-30T08:04:03;7.00;;;5.50;;
60318;SDS011;46163;52.306;5.634;2024-01-30T08:06:31;9.77;;;5.20;;
60318;SDS011;46163;52.306;5.634;2024-01-30T08:08:56;6.97;;;5.68;;
60318;SDS011;46163;52.306;5.634;2024-01-30T08:11:24;8.68;;;5.88;;
60318;SDS011;46163;52.306;5.634;2024-01-30T08:13:51;7.30;;;5.40;;
60318;SDS011;46163;52.306;5.634;2024-01-30T08:16:20;9.65;;;6.03;;
60318;SDS011;46163;52.306;5.634;2024-01-30T08:18:45;9.45;;;5.90;;
60318;SDS011;46163;52.306;5.634;2024-01-30T08:21:11;7.20;;;5.35;;
60318;SDS011;46163;52.306;5.634;2024-01-30T08:23:38;7.32;;;5.53;;
60318;SDS011;46163;52.306;5.634;2024-01-30T08:26:04;8.10;;;5.70;;
60318;SDS011;46163;52.306;5.634;2024-01-30T08:28:30;6.95;;;5.25;;
60318;SDS011;46163;52.306;5.634;2024-01-30T08:30:56;10.50;;;5.10;;
60318;SDS011;46163;52.306;5.634;2024-01-30T08:33:22;8.57;;;5.45;;
60318;SDS011;46163;52.306;5.634;2024-01-30T08:35:47;5.32;;;4.78;;
60318;SDS011;46163;52.306;5.634;2024-01-30T08:38:13;5.95;;;4.80;;
60318;SDS011;46163;52.306;5.634;2024-01-30T08:40:39;6.53;;;5.50;;
60318;SDS011;46163;52.306;5.634;2024-01-30T08:43:04;10.32;;;5.40;;
60318;SDS011;46163;52.306;5.634;2024-01-30T08:45:29;13.77;;;5.50;;
60318;SDS011;46163;52.306;5.634;2024-01-30T08:47:55;12.98;;;6.40;;
60318;SDS011;46163;52.306;5.634;2024-01-30T08:50:21;7.68;;;5.25;;
60318;SDS011;46163;52.306;5.634;2024-01-30T08:52:46;8.23;;;5.38;;
60318;SDS011;46163;52.306;5.634;2024-01-30T08:55:12;7.45;;;4.40;;
60318;SDS011;46163;52.306;5.634;2024-01-30T08:57:37;8.82;;;5.53;;
60318;SDS011;46163;52.306;5.634;2024-01-30T09:00:03;7.07;;;5.05;;
60318;SDS011;46163;52.306;5.634;2024-01-30T09:04:57;7.68;;;4.97;;
60318;SDS011;46163;52.306;5.634;2024-01-30T09:07:22;9.70;;;5.70;;
60318;SDS011;46163;52.306;5.634;2024-01-30T09:09:48;7.55;;;5.55;;
60318;SDS011;46163;52.306;5.634;2024-01-30T09:12:14;9.20;;;5.43;;
60318;SDS011;46163;52.306;5.634;2024-01-30T09:14:39;8.25;;;5.47;;
60318;SDS011;46163;52.306;5.634;2024-01-30T09:17:06;9.85;;;5.57;;
60318;SDS011;46163;52.306;5.634;2024-01-30T09:19:31;8.57;;;6.13;;
60318;SDS011;46163;52.306;5.634;2024-01-30T09:21:57;7.55;;;5.05;;
60318;SDS011;46163;52.306;5.634;2024-01-30T09:24:22;13.88;;;5.40;;
60318;SDS011;46163;52.306;5.634;2024-01-30T09:26:48;12.20;;;5.72;;
60318;SDS011;46163;52.306;5.634;2024-01-30T09:29:13;8.82;;;5.38;;
60318;SDS011;46163;52.306;5.634;2024-01-30T09:31:39;10.82;;;5.75;;
60318;SDS011;46163;52.306;5.634;2024-01-30T09:34:04;7.50;;;5.35;;
60318;SDS011;46163;52.306;5.634;2024-01-30T09:36:30;10.45;;;5.80;;
60318;SDS011;46163;52.306;5.634;2024-01-30T09:38:56;9.32;;;5.78;;
60318;SDS011;46163;52.306;5.634;2024-01-30T09:41:23;8.00;;;6.00;;
60318;SDS011;46163;52.306;5.634;2024-01-30T09:43:49;13.43;;;6.57;;
60318;SDS011;46163;52.306;5.634;2024-01-30T09:46:16;8.45;;;5.25;;
60318;SDS011;46163;52.306;5.634;2024-01-30T09:48:48;7.93;;;5.20;;
60318;SDS011;46163;52.306;5.634;2024-01-30T09:51:14;13.13;;;6.40;;
60318;SDS011;46163;52.306;5.634;2024-01-30T09:53:42;8.15;;;5.18;;
60318;SDS011;46163;52.306;5.634;2024-01-30T09:56:08;9.68;;;6.03;;
60318;SDS011;46163;52.306;5.634;2024-01-30T09:58:34;8.68;;;5.55;;
60318;SDS011;46163;52.306;5.634;2024-01-30T10:01:00;11.77;;;6.00;;
60318;SDS011;46163;52.306;5.634;2024-01-30T10:03:25;9.13;;;5.50;;
60318;SDS011;46163;52.306;5.634;2024-01-30T10:05:52;10.32;;;6.50;;
60318;SDS011;46163;52.306;5.634;2024-01-30T10:08:18;11.52;;;5.60;;
60318;SDS011;46163;52.306;5.634;2024-01-30T10:10:47;8.90;;;6.03;;
60318;SDS011;46163;52.306;5.634;2024-01-30T10:13:15;7.80;;;6.07;;
60318;SDS011;46163;52.306;5.634;2024-01-30T10:15:41;7.47;;;5.50;;
60318;SDS011;46163;52.306;5.634;2024-01-30T10:18:06;11.63;;;5.88;;
60318;SDS011;46163;52.306;5.634;2024-01-30T10:20:33;6.18;;;4.85;;
60318;SDS011;46163;52.306;5.634;2024-01-30T10:22:59;6.32;;;4.80;;
60318;SDS011;46163;52.306;5.634;2024-01-30T10:25:25;9.00;;;5.75;;
60318;SDS011;46163;52.306;5.634;2024-01-30T10:27:54;11.20;;;6.05;;
60318;SDS011;46163;52.306;5.634;2024-01-30T10:30:23;9.90;;;6.68;;
60318;SDS011;46163;52.306;5.634;2024-01-30T10:32:50;11.95;;;5.43;;
60318;SDS011;46163;52.306;5.634;2024-01-30T10:35:16;11.75;;;5.35;;
60318;SDS011;46163;52.306;5.634;2024-01-30T10:37:46;9.48;;;5.38;;
60318;SDS011;46163;52.306;5.634;2024-01-30T10:40:13;10.35;;;4.95;;
60318;SDS011;46163;52.306;5.634;2024-01-30T10:42:44;8.10;;;5.00;;
60318;SDS011;46163;52.306;5.634;2024-01-30T10:45:11;5.85;;;4.90;;
60318;SDS011;46163;52.306;5.634;2024-01-30T10:47:48;4.70;;;4.00;;
60318;SDS011;46163;52.306;5.634;2024-01-30T10:50:15;8.10;;;4.70;;
60318;SDS011;46163;52.306;5.634;2024-01-30T10:52:41;10.55;;;5.60;;
60318;SDS011;46163;52.306;5.634;2024-01-30T10:55:07;8.10;;;5.07;;
60318;SDS011;46163;52.306;5.634;2024-01-30T10:57:33;8.27;;;4.97;;
60318;SDS011;46163;52.306;5.634;2024-01-30T11:00:02;7.07;;;4.90;;
60318;SDS011;46163;52.306;5.634;2024-01-30T11:02:36;8.35;;;5.38;;
60318;SDS011;46163;52.306;5.634;2024-01-30T11:05:05;13.55;;;5.43;;
60318;SDS011;46163;52.306;5.634;2024-01-30T11:07:30;8.32;;;5.00;;
60318;SDS011;46163;52.306;5.634;2024-01-30T11:12:28;8.80;;;5.35;;
60318;SDS011;46163;52.306;5.634;2024-01-30T11:15:05;11.70;;;5.15;;
60318;SDS011;46163;52.306;5.634;2024-01-30T11:17:41;7.93;;;5.00;;
60318;SDS011;46163;52.306;5.634;2024-01-30T11:20:18;10.50;;;5.20;;
60318;SDS011;46163;52.306;5.634;2024-01-30T11:22:45;7.80;;;5.15;;
60318;SDS011;46163;52.306;5.634;2024-01-30T11:25:13;8.93;;;5.25;;
60318;SDS011;46163;52.306;5.634;2024-01-30T11:27:44;7.30;;;5.18;;
60318;SDS011;46163;52.306;5.634;2024-01-30T11:30:20;5.25;;;4.75;;
60318;SDS011;46163;52.306;5.634;2024-01-30T11:32:57;8.07;;;5.05;;
60318;SDS011;46163;52.306;5.634;2024-01-30T11:35:36;9.52;;;4.45;;
60318;SDS011;46163;52.306;5.634;2024-01-30T11:38:04;7.75;;;4.78;;
60318;SDS011;46163;52.306;5.634;2024-01-30T11:40:31;7.97;;;3.40;;
60318;SDS011;46163;52.306;5.634;2024-01-30T11:42:59;6.60;;;3.73;;
60318;SDS011;46163;52.306;5.634;2024-01-30T11:45:28;5.00;;;3.80;;
60318;SDS011;46163;52.306;5.634;2024-01-30T11:47:54;4.88;;;3.92;;
60318;SDS011;46163;52.306;5.634;2024-01-30T11:50:20;7.32;;;3.75;;
60318;SDS011;46163;52.306;5.634;2024-01-30T11:52:47;6.78;;;3.92;;
60318;SDS011;46163;52.306;5.634;2024-01-30T11:55:13;5.00;;;3.55;;
60318;SDS011;46163;52.306;5.634;2024-01-30T11:57:40;7.32;;;3.47;;
60318;SDS011;46163;52.306;5.634;2024-01-30T12:00:06;7.05;;;3.97;;
60318;SDS011;46163;52.306;5.634;2024-01-30T12:02:39;9.43;;;3.53;;
60318;SDS011;46163;52.306;5.634;2024-01-30T12:05:06;5.60;;;3.75;;
60318;SDS011;46163;52.306;5.634;2024-01-30T12:07:32;9.95;;;3.45;;
60318;SDS011;46163;52.306;5.634;2024-01-30T12:09:59;7.80;;;3.60;;
60318;SDS011;46163;52.306;5.634;2024-01-30T12:12:25;7.05;;;3.40;;
60318;SDS011;46163;52.306;5.634;2024-01-30T12:14:51;7.57;;;2.70;;
60318;SDS011;46163;52.306;5.634;2024-01-30T12:17:31;8.75;;;2.45;;
60318;SDS011;46163;52.306;5.634;2024-01-30T12:22:37;7.03;;;2.20;;
60318;SDS011;46163;52.306;5.634;2024-01-30T12:25:13;2.23;;;2.03;;
60318;SDS011;46163;52.306;5.634;2024-01-30T12:27:41;3.05;;;2.30;;
60318;SDS011;46163;52.306;5.634;2024-01-30T12:30:08;4.28;;;2.88;;
60318;SDS011;46163;52.306;5.634;2024-01-30T12:32:41;6.97;;;3.72;;
60318;SDS011;46163;52.306;5.634;2024-01-30T12:35:11;3.38;;;3.08;;
60318;SDS011;46163;52.306;5.634;2024-01-30T12:37:38;4.53;;;3.17;;
60318;SDS011;46163;52.306;5.634;2024-01-30T12:40:04;6.78;;;3.03;;
60318;SDS011;46163;52.306;5.634;2024-01-30T12:42:31;5.75;;;3.17;;
60318;SDS011;46163;52.306;5.634;2024-01-30T12:44:57;5.13;;;3.42;;
60318;SDS011;46163;52.306;5.634;2024-01-30T12:47:23;4.85;;;2.85;;
60318;SDS011;46163;52.306;5.634;2024-01-30T12:49:49;5.13;;;3.20;;
60318;SDS011;46163;52.306;5.634;2024-01-30T12:52:18;5.15;;;2.30;;
60318;SDS011;46163;52.306;5.634;2024-01-30T12:54:44;3.45;;;2.40;;
60318;SDS011;46163;52.306;5.634;2024-01-30T12:57:09;4.68;;;2.38;;
60318;SDS011;46163;52.306;5.634;2024-01-30T12:59:35;6.57;;;2.45;;
60318;SDS011;46163;52.306;5.634;2024-01-30T13:02:00;5.72;;;2.47;;
60318;SDS011;46163;52.306;5.634;2024-01-30T13:04:27;4.15;;;2.85;;
60318;SDS011;46163;52.306;5.634;2024-01-30T13:06:53;2.20;;;1.90;;
60318;SDS011;46163;52.306;5.634;2024-01-30T13:09:18;5.63;;;2.20;;
60318;SDS011;46163;52.306;5.634;2024-01-30T13:11:44;3.00;;;2.20;;
60318;SDS011;46163;52.306;5.634;2024-01-30T13:14:09;6.40;;;2.92;;
60318;SDS011;46163;52.306;5.634;2024-01-30T13:16:35;6.00;;;2.25;;
60318;SDS011;46163;52.306;5.634;2024-01-30T13:19:00;3.85;;;2.20;;
60318;SDS011;46163;52.306;5.634;2024-01-30T13:21:27;5.38;;;2.30;;
60318;SDS011;46163;52.306;5.634;2024-01-30T13:23:52;3.90;;;1.90;;
60318;SDS011;46163;52.306;5.634;2024-01-30T13:26:19;2.33;;;2.00;;
60318;SDS011;46163;52.306;5.634;2024-01-30T13:28:45;2.10;;;1.90;;
60318;SDS011;46163;52.306;5.634;2024-01-30T13:31:10;2.50;;;2.22;;
60318;SDS011;46163;52.306;5.634;2024-01-30T13:33:35;3.17;;;2.17;;
60318;SDS011;46163;52.306;5.634;2024-01-30T13:36:01;8.98;;;2.65;;
60318;SDS011;46163;52.306;5.634;2024-01-30T13:38:26;2.55;;;2.35;;
60318;SDS011;46163;52.306;5.634;2024-01-30T13:40:51;4.03;;;2.60;;
60318;SDS011;46163;52.306;5.634;2024-01-30T13:43:17;2.65;;;2.03;;
60318;SDS011;46163;52.306;5.634;2024-01-30T13:45:43;5.45;;;2.42;;
60318;SDS011;46163;52.306;5.634;2024-01-30T13:48:08;3.47;;;2.38;;
60318;SDS011;46163;52.306;5.634;2024-01-30T13:50:34;4.35;;;2.45;;
60318;SDS011;46163;52.306;5.634;2024-01-30T13:52:59;3.60;;;2.30;;
60318;SDS011;46163;52.306;5.634;2024-01-30T13:55:24;3.70;;;2.45;;
60318;SDS011;46163;52.306;5.634;2024-01-30T13:57:50;4.10;;;2.22;;
60318;SDS011;46163;52.306;5.634;2024-01-30T14:00:15;2.00;;;1.90;;
60318;SDS011;46163;52.306;5.634;2024-01-30T14:02:41;3.35;;;2.17;;
60318;SDS011;46163;52.306;5.634;2024-01-30T14:05:07;4.65;;;2.00;;
60318;SDS011;46163;52.306;5.634;2024-01-30T14:07:33;2.45;;;2.17;;
60318;SDS011;46163;52.306;5.634;2024-01-30T14:10:00;4.78;;;2.38;;
60318;SDS011;46163;52.306;5.634;2024-01-30T14:12:26;2.38;;;2.17;;
60318;SDS011;46163;52.306;5.634;2024-01-30T14:14:51;5.47;;;2.30;;
60318;SDS011;46163;52.306;5.634;2024-01-30T14:17:17;5.55;;;2.30;;
60318;SDS011;46163;52.306;5.634;2024-01-30T14:19:42;2.95;;;2.35;;
60318;SDS011;46163;52.306;5.634;2024-01-30T14:22:07;4.68;;;2.75;;
60318;SDS011;46163;52.306;5.634;2024-01-30T14:24:33;2.53;;;2.28;;
60318;SDS011;46163;52.306;5.634;2024-01-30T14:26:58;4.07;;;2.58;;
60318;SDS011;46163;52.306;5.634;2024-01-30T14:29:24;4.20;;;2.67;;
60318;SDS011;46163;52.306;5.634;2024-01-30T14:31:50;2.53;;;2.33;;
60318;SDS011;46163;52.306;5.634;2024-01-30T14:34:15;6.10;;;3.15;;
60318;SDS011;46163;52.306;5.634;2024-01-30T14:36:42;3.70;;;2.80;;
60318;SDS011;46163;52.306;5.634;2024-01-30T14:39:08;3.42;;;3.13;;
60318;SDS011;46163;52.306;5.634;2024-01-30T14:41:34;7.20;;;3.17;;
60318;SDS011;46163;52.306;5.634;2024-01-30T14:44:00;4.82;;;3.20;;
60318;SDS011;46163;52.306;5.634;2024-01-30T14:46:25;4.55;;;3.50;;
60318;SDS011;46163;52.306;5.634;2024-01-30T14:48:52;3.70;;;3.08;;